Argusville, North Dakota
Current Conditions -  °F | °C
As of 10:03 AM on Thursday 30 Oct 2014 (Local Time) from KFAR Reporting Station
Overcast Overcast  
Wind Chill: 30°   Ceiling: 3000
Heat Index: 39°   Visibility: 10mi
Dew Point: 35°   Wind: 17mph
Humidity: 86%   Direction: 360°N
Pressure: 30.19"   Gusts: NA
Location:  47.05°N, 96.93°W
Report Text: KFAR 301503Z 36015KT 10SM OVC030 04/02 A3019 RMK AO2 T00390017
Loading
Personal Weather Stations






























Interactive Weather Map
Tropical Storm Tracking
New forecast layout! Learn more

10-Day Weather Forecast

Advertisements
Track Severe Weather on mobile